Terminal Aerodrome Forecast
Issued by NWS Miami, FL

Home | Current Version | Previous Version | Text Only | Print | Product List | Glossary On
Versions: 1 2 3 4 5 6 7 8 9 10 11 12 13 14 15 16 17 18 19 20 21 22 23 24 25 26 27 28
000
FTUS42 KMFL 290537
TAFAPF
TAF
KAPF 290537Z 2906/3006 05005KT P6SM VCSH SCT035 BKN050 BKN250
      TEMPO 2906/2910 VRB10G15KT 5SM SHRA BKN030 BKN050 OVC250
     FM291400 22006KT P6SM VCSH SCT030 SCT200
     FM291700 25009KT P6SM VCTS SCT025CB SCT060 SCT250
     FM292000 25008KT P6SM VCSH SCT030 SCT250=

USA.gov is the U.S. government's official web portal to all federal, state and local government web resources and services.